sensor_id;sensor_type;location;lat;lon;timestamp;temperature;humidity
66670;DHT22;53568;52.164;4.472;2024-03-06T00:02:07;10.18;75.08
66670;DHT22;53568;52.164;4.472;2024-03-06T00:04:33;10.16;75.09
66670;DHT22;53568;52.164;4.472;2024-03-06T00:06:58;10.19;75.04
66670;DHT22;53568;52.164;4.472;2024-03-06T00:09:25;10.14;74.92
66670;DHT22;53568;52.164;4.472;2024-03-06T00:11:55;10.09;75.22
66670;DHT22;53568;52.164;4.472;2024-03-06T00:14:21;10.08;75.37
66670;DHT22;53568;52.164;4.472;2024-03-06T00:16:47;10.09;75.50
66670;DHT22;53568;52.164;4.472;2024-03-06T00:19:16;10.14;75.36
66670;DHT22;53568;52.164;4.472;2024-03-06T00:21:41;10.14;75.49
66670;DHT22;53568;52.164;4.472;2024-03-06T00:24:07;10.15;75.52
66670;DHT22;53568;52.164;4.472;2024-03-06T00:26:33;10.21;75.45
66670;DHT22;53568;52.164;4.472;2024-03-06T00:28:58;10.22;75.18
66670;DHT22;53568;52.164;4.472;2024-03-06T00:31:24;10.22;75.35
66670;DHT22;53568;52.164;4.472;2024-03-06T00:33:49;10.22;75.27
66670;DHT22;53568;52.164;4.472;2024-03-06T00:36:15;10.24;75.30
66670;DHT22;53568;52.164;4.472;2024-03-06T00:38:40;10.21;75.32
66670;DHT22;53568;52.164;4.472;2024-03-06T00:41:05;10.18;75.33
66670;DHT22;53568;52.164;4.472;2024-03-06T00:43:31;10.16;75.41
66670;DHT22;53568;52.164;4.472;2024-03-06T00:45:56;10.12;75.27
66670;DHT22;53568;52.164;4.472;2024-03-06T00:48:22;9.99;75.83
66670;DHT22;53568;52.164;4.472;2024-03-06T00:50:47;9.95;76.26
66670;DHT22;53568;52.164;4.472;2024-03-06T00:53:13;9.98;76.41
66670;DHT22;53568;52.164;4.472;2024-03-06T00:55:39;10.04;76.52
66670;DHT22;53568;52.164;4.472;2024-03-06T00:58:05;10.04;76.49
66670;DHT22;53568;52.164;4.472;2024-03-06T01:00:31;10.06;76.34
66670;DHT22;53568;52.164;4.472;2024-03-06T01:02:57;10.09;76.33
66670;DHT22;53568;52.164;4.472;2024-03-06T01:05:23;10.06;76.35
66670;DHT22;53568;52.164;4.472;2024-03-06T01:07:48;10.08;76.36
66670;DHT22;53568;52.164;4.472;2024-03-06T01:10:14;10.05;76.23
66670;DHT22;53568;52.164;4.472;2024-03-06T01:12:39;10.01;76.42
66670;DHT22;53568;52.164;4.472;2024-03-06T01:15:05;9.95;76.62
66670;DHT22;53568;52.164;4.472;2024-03-06T01:17:31;9.95;76.75
66670;DHT22;53568;52.164;4.472;2024-03-06T01:19:57;9.97;76.86
66670;DHT22;53568;52.164;4.472;2024-03-06T01:22:24;9.97;77.00
66670;DHT22;53568;52.164;4.472;2024-03-06T01:24:49;10.02;76.88
66670;DHT22;53568;52.164;4.472;2024-03-06T01:27:16;10.04;76.68
66670;DHT22;53568;52.164;4.472;2024-03-06T01:29:42;10.04;76.78
66670;DHT22;53568;52.164;4.472;2024-03-06T01:32:08;10.06;76.95
66670;DHT22;53568;52.164;4.472;2024-03-06T01:34:35;10.11;76.88
66670;DHT22;53568;52.164;4.472;2024-03-06T01:37:01;10.11;76.79
66670;DHT22;53568;52.164;4.472;2024-03-06T01:39:26;10.09;76.71
66670;DHT22;53568;52.164;4.472;2024-03-06T01:41:52;10.08;76.58
66670;DHT22;53568;52.164;4.472;2024-03-06T01:44:18;10.08;76.60
66670;DHT22;53568;52.164;4.472;2024-03-06T01:46:44;10.02;76.82
66670;DHT22;53568;52.164;4.472;2024-03-06T01:49:11;10.06;76.81
66670;DHT22;53568;52.164;4.472;2024-03-06T01:51:40;10.04;76.98
66670;DHT22;53568;52.164;4.472;2024-03-06T01:54:06;10.01;76.98
66670;DHT22;53568;52.164;4.472;2024-03-06T01:56:38;9.98;77.03
66670;DHT22;53568;52.164;4.472;2024-03-06T01:59:06;9.97;77.12
66670;DHT22;53568;52.164;4.472;2024-03-06T02:01:32;9.99;77.31
66670;DHT22;53568;52.164;4.472;2024-03-06T02:03:59;9.99;77.14
66670;DHT22;53568;52.164;4.472;2024-03-06T02:06:27;10.04;77.12
66670;DHT22;53568;52.164;4.472;2024-03-06T02:08:52;10.02;77.02
66670;DHT22;53568;52.164;4.472;2024-03-06T02:11:18;9.98;77.01
66670;DHT22;53568;52.164;4.472;2024-03-06T02:13:43;9.99;77.20
66670;DHT22;53568;52.164;4.472;2024-03-06T02:16:10;9.99;77.31
66670;DHT22;53568;52.164;4.472;2024-03-06T02:18:36;10.02;77.29
66670;DHT22;53568;52.164;4.472;2024-03-06T02:21:03;10.02;77.33
66670;DHT22;53568;52.164;4.472;2024-03-06T02:23:30;10.06;77.12
66670;DHT22;53568;52.164;4.472;2024-03-06T02:25:56;10.05;77.28
66670;DHT22;53568;52.164;4.472;2024-03-06T02:28:22;10.11;77.39
66670;DHT22;53568;52.164;4.472;2024-03-06T02:30:50;10.09;77.09
66670;DHT22;53568;52.164;4.472;2024-03-06T02:33:16;10.09;77.02
66670;DHT22;53568;52.164;4.472;2024-03-06T02:35:43;10.06;76.97
66670;DHT22;53568;52.164;4.472;2024-03-06T02:38:10;9.99;77.20
66670;DHT22;53568;52.164;4.472;2024-03-06T02:40:36;9.99;77.39
66670;DHT22;53568;52.164;4.472;2024-03-06T02:43:01;10.02;77.33
66670;DHT22;53568;52.164;4.472;2024-03-06T02:45:27;9.97;77.34
66670;DHT22;53568;52.164;4.472;2024-03-06T02:47:53;9.92;77.54
66670;DHT22;53568;52.164;4.472;2024-03-06T02:50:19;9.98;77.64
66670;DHT22;53568;52.164;4.472;2024-03-06T02:52:46;9.99;77.60
66670;DHT22;53568;52.164;4.472;2024-03-06T02:55:12;10.02;77.45
66670;DHT22;53568;52.164;4.472;2024-03-06T02:57:38;10.04;77.31
66670;DHT22;53568;52.164;4.472;2024-03-06T03:00:03;10.09;77.22
66670;DHT22;53568;52.164;4.472;2024-03-06T03:02:29;10.11;77.20
66670;DHT22;53568;52.164;4.472;2024-03-06T03:04:55;10.11;77.29
66670;DHT22;53568;52.164;4.472;2024-03-06T03:07:20;10.09;76.99
66670;DHT22;53568;52.164;4.472;2024-03-06T03:09:46;10.08;77.27
66670;DHT22;53568;52.164;4.472;2024-03-06T03:12:12;10.12;77.38
66670;DHT22;53568;52.164;4.472;2024-03-06T03:14:40;10.21;77.27
66670;DHT22;53568;52.164;4.472;2024-03-06T03:17:06;10.22;77.14
66670;DHT22;53568;52.164;4.472;2024-03-06T03:19:32;10.24;77.03
66670;DHT22;53568;52.164;4.472;2024-03-06T03:21:59;10.24;76.89
66670;DHT22;53568;52.164;4.472;2024-03-06T03:24:25;10.26;76.86
66670;DHT22;53568;52.164;4.472;2024-03-06T03:26:53;10.26;76.79
66670;DHT22;53568;52.164;4.472;2024-03-06T03:29:18;10.29;76.73
66670;DHT22;53568;52.164;4.472;2024-03-06T03:31:44;10.32;76.59
66670;DHT22;53568;52.164;4.472;2024-03-06T03:34:10;10.32;76.42
66670;DHT22;53568;52.164;4.472;2024-03-06T03:36:41;10.32;76.31
66670;DHT22;53568;52.164;4.472;2024-03-06T03:39:07;10.29;76.30
66670;DHT22;53568;52.164;4.472;2024-03-06T03:41:44;10.35;76.30
66670;DHT22;53568;52.164;4.472;2024-03-06T03:44:15;10.39;76.15
66670;DHT22;53568;52.164;4.472;2024-03-06T03:46:41;10.45;75.92
66670;DHT22;53568;52.164;4.472;2024-03-06T03:49:07;10.44;75.79
66670;DHT22;53568;52.164;4.472;2024-03-06T03:51:35;10.41;75.88
66670;DHT22;53568;52.164;4.472;2024-03-06T03:54:01;10.38;75.98
66670;DHT22;53568;52.164;4.472;2024-03-06T03:56:26;10.34;75.59
66670;DHT22;53568;52.164;4.472;2024-03-06T03:58:52;10.16;75.90
66670;DHT22;53568;52.164;4.472;2024-03-06T04:01:18;10.08;76.40
66670;DHT22;53568;52.164;4.472;2024-03-06T04:03:43;10.08;76.75
66670;DHT22;53568;52.164;4.472;2024-03-06T04:06:10;10.06;77.01
66670;DHT22;53568;52.164;4.472;2024-03-06T04:08:36;10.02;76.89
66670;DHT22;53568;52.164;4.472;2024-03-06T04:11:04;9.99;76.90
66670;DHT22;53568;52.164;4.472;2024-03-06T04:13:29;9.99;76.93
66670;DHT22;53568;52.164;4.472;2024-03-06T04:15:55;9.99;76.75
66670;DHT22;53568;52.164;4.472;2024-03-06T04:18:21;9.95;76.84
66670;DHT22;53568;52.164;4.472;2024-03-06T04:20:46;9.97;76.87
66670;DHT22;53568;52.164;4.472;2024-03-06T04:23:12;9.97;76.75
66670;DHT22;53568;52.164;4.472;2024-03-06T04:25:37;9.98;77.08
66670;DHT22;53568;52.164;4.472;2024-03-06T04:28:05;9.97;76.98
66670;DHT22;53568;52.164;4.472;2024-03-06T04:30:33;10.04;76.86
66670;DHT22;53568;52.164;4.472;2024-03-06T04:32:58;10.01;76.64
66670;DHT22;53568;52.164;4.472;2024-03-06T04:35:24;10.02;76.57
66670;DHT22;53568;52.164;4.472;2024-03-06T04:37:50;9.99;76.47
66670;DHT22;53568;52.164;4.472;2024-03-06T04:40:16;9.90;76.77
66670;DHT22;53568;52.164;4.472;2024-03-06T04:42:45;9.88;76.52
66670;DHT22;53568;52.164;4.472;2024-03-06T04:45:15;9.92;76.56
66670;DHT22;53568;52.164;4.472;2024-03-06T04:47:42;9.81;76.93
66670;DHT22;53568;52.164;4.472;2024-03-06T04:50:11;9.73;77.05
66670;DHT22;53568;52.164;4.472;2024-03-06T04:52:40;9.75;77.15
66670;DHT22;53568;52.164;4.472;2024-03-06T04:55:07;9.75;77.21
66670;DHT22;53568;52.164;4.472;2024-03-06T04:57:34;9.84;77.20
66670;DHT22;53568;52.164;4.472;2024-03-06T04:59:59;9.85;77.12
66670;DHT22;53568;52.164;4.472;2024-03-06T05:02:26;9.88;76.95
66670;DHT22;53568;52.164;4.472;2024-03-06T05:04:52;9.84;76.89
66670;DHT22;53568;52.164;4.472;2024-03-06T05:07:17;9.84;76.95
66670;DHT22;53568;52.164;4.472;2024-03-06T05:09:43;9.81;76.94
66670;DHT22;53568;52.164;4.472;2024-03-06T05:12:08;9.77;77.01
66670;DHT22;53568;52.164;4.472;2024-03-06T05:14:34;9.60;77.43
66670;DHT22;53568;52.164;4.472;2024-03-06T05:16:59;9.67;77.08
66670;DHT22;53568;52.164;4.472;2024-03-06T05:19:25;9.71;77.32
66670;DHT22;53568;52.164;4.472;2024-03-06T05:22:00;9.64;77.34
66670;DHT22;53568;52.164;4.472;2024-03-06T05:24:26;9.65;77.31
66670;DHT22;53568;52.164;4.472;2024-03-06T05:26:51;9.75;77.29
66670;DHT22;53568;52.164;4.472;2024-03-06T05:29:17;9.73;76.93
66670;DHT22;53568;52.164;4.472;2024-03-06T05:31:42;9.71;77.15
66670;DHT22;53568;52.164;4.472;2024-03-06T05:34:08;9.75;76.93
66670;DHT22;53568;52.164;4.472;2024-03-06T05:36:33;9.69;76.86
66670;DHT22;53568;52.164;4.472;2024-03-06T05:38:59;9.62;77.18
66670;DHT22;53568;52.164;4.472;2024-03-06T05:41:25;9.64;77.24
66670;DHT22;53568;52.164;4.472;2024-03-06T05:43:52;9.69;77.08
66670;DHT22;53568;52.164;4.472;2024-03-06T05:46:17;9.69;77.05
66670;DHT22;53568;52.164;4.472;2024-03-06T05:48:44;9.65;76.71
66670;DHT22;53568;52.164;4.472;2024-03-06T05:51:10;9.65;76.79
66670;DHT22;53568;52.164;4.472;2024-03-06T05:53:39;9.57;76.62
66670;DHT22;53568;52.164;4.472;2024-03-06T05:56:06;9.50;76.87
66670;DHT22;53568;52.164;4.472;2024-03-06T05:58:32;9.41;77.14
66670;DHT22;53568;52.164;4.472;2024-03-06T06:00:58;9.38;77.09
66670;DHT22;53568;52.164;4.472;2024-03-06T06:03:23;9.38;77.22
66670;DHT22;53568;52.164;4.472;2024-03-06T06:05:49;9.26;77.37
66670;DHT22;53568;52.164;4.472;2024-03-06T06:08:14;9.26;77.69
66670;DHT22;53568;52.164;4.472;2024-03-06T06:10:40;9.23;77.69
66670;DHT22;53568;52.164;4.472;2024-03-06T06:13:05;9.23;78.02
66670;DHT22;53568;52.164;4.472;2024-03-06T06:15:31;9.23;77.90
66670;DHT22;53568;52.164;4.472;2024-03-06T06:17:57;9.26;77.62
66670;DHT22;53568;52.164;4.472;2024-03-06T06:20:23;9.19;77.44
66670;DHT22;53568;52.164;4.472;2024-03-06T06:22:49;9.15;77.75
66670;DHT22;53568;52.164;4.472;2024-03-06T06:25:15;9.12;77.84
66670;DHT22;53568;52.164;4.472;2024-03-06T06:27:41;9.09;77.98
66670;DHT22;53568;52.164;4.472;2024-03-06T06:30:07;9.10;77.87
66670;DHT22;53568;52.164;4.472;2024-03-06T06:32:45;9.00;78.16
66670;DHT22;53568;52.164;4.472;2024-03-06T06:35:11;9.03;77.93
66670;DHT22;53568;52.164;4.472;2024-03-06T06:37:39;8.96;78.36
66670;DHT22;53568;52.164;4.472;2024-03-06T06:40:08;8.95;78.56
66670;DHT22;53568;52.164;4.472;2024-03-06T06:42:35;8.96;78.74
66670;DHT22;53568;52.164;4.472;2024-03-06T06:45:01;8.99;78.55
66670;DHT22;53568;52.164;4.472;2024-03-06T06:47:28;8.86;78.65
66670;DHT22;53568;52.164;4.472;2024-03-06T06:49:53;8.89;78.94
66670;DHT22;53568;52.164;4.472;2024-03-06T06:52:19;8.89;79.02
66670;DHT22;53568;52.164;4.472;2024-03-06T06:54:45;8.85;79.24
66670;DHT22;53568;52.164;4.472;2024-03-06T06:57:10;8.93;79.23
66670;DHT22;53568;52.164;4.472;2024-03-06T06:59:36;8.89;79.29
66670;DHT22;53568;52.164;4.472;2024-03-06T07:02:05;8.90;79.35
66670;DHT22;53568;52.164;4.472;2024-03-06T07:04:31;8.97;79.52
66670;DHT22;53568;52.164;4.472;2024-03-06T07:06:57;8.96;79.48
66670;DHT22;53568;52.164;4.472;2024-03-06T07:09:22;9.09;79.40
66670;DHT22;53568;52.164;4.472;2024-03-06T07:11:48;9.12;78.84
66670;DHT22;53568;52.164;4.472;2024-03-06T07:14:14;9.15;79.20
66670;DHT22;53568;52.164;4.472;2024-03-06T07:16:45;9.19;78.68
66670;DHT22;53568;52.164;4.472;2024-03-06T07:19:11;9.17;78.83
66670;DHT22;53568;52.164;4.472;2024-03-06T07:21:37;9.19;78.86
66670;DHT22;53568;52.164;4.472;2024-03-06T07:24:04;9.22;78.79
66670;DHT22;53568;52.164;4.472;2024-03-06T07:26:32;9.26;78.82
66670;DHT22;53568;52.164;4.472;2024-03-06T07:28:58;9.28;78.65
66670;DHT22;53568;52.164;4.472;2024-03-06T07:31:24;9.33;78.34
66670;DHT22;53568;52.164;4.472;2024-03-06T07:33:50;9.28;78.41
66670;DHT22;53568;52.164;4.472;2024-03-06T07:36:16;9.34;78.30
66670;DHT22;53568;52.164;4.472;2024-03-06T07:38:42;9.34;78.18
66670;DHT22;53568;52.164;4.472;2024-03-06T07:41:08;9.28;78.00
66670;DHT22;53568;52.164;4.472;2024-03-06T07:43:33;9.19;78.25
66670;DHT22;53568;52.164;4.472;2024-03-06T07:45:59;9.10;78.42
66670;DHT22;53568;52.164;4.472;2024-03-06T07:48:25;9.13;78.59
66670;DHT22;53568;52.164;4.472;2024-03-06T07:50:51;9.20;78.29
66670;DHT22;53568;52.164;4.472;2024-03-06T07:53:17;9.09;78.13
66670;DHT22;53568;52.164;4.472;2024-03-06T07:55:43;9.02;78.04
66670;DHT22;53568;52.164;4.472;2024-03-06T07:58:09;9.07;78.62
66670;DHT22;53568;52.164;4.472;2024-03-06T08:00:35;9.10;78.27
66670;DHT22;53568;52.164;4.472;2024-03-06T08:03:01;9.07;78.22
66670;DHT22;53568;52.164;4.472;2024-03-06T08:05:28;9.00;78.27
66670;DHT22;53568;52.164;4.472;2024-03-06T08:07:53;8.99;78.36
66670;DHT22;53568;52.164;4.472;2024-03-06T08:10:19;8.97;78.52
66670;DHT22;53568;52.164;4.472;2024-03-06T08:12:45;9.03;78.35
66670;DHT22;53568;52.164;4.472;2024-03-06T08:15:14;9.06;78.15
66670;DHT22;53568;52.164;4.472;2024-03-06T08:17:43;9.05;77.89
66670;DHT22;53568;52.164;4.472;2024-03-06T08:20:09;8.95;77.90
66670;DHT22;53568;52.164;4.472;2024-03-06T08:22:40;8.89;78.21
66670;DHT22;53568;52.164;4.472;2024-03-06T08:25:11;8.80;78.56
66670;DHT22;53568;52.164;4.472;2024-03-06T08:27:40;8.89;78.24
66670;DHT22;53568;52.164;4.472;2024-03-06T08:30:07;8.85;78.25
66670;DHT22;53568;52.164;4.472;2024-03-06T08:32:35;8.89;78.44
66670;DHT22;53568;52.164;4.472;2024-03-06T08:35:03;8.85;78.65
66670;DHT22;53568;52.164;4.472;2024-03-06T08:37:32;8.87;78.46
66670;DHT22;53568;52.164;4.472;2024-03-06T08:39:59;8.93;78.93
66670;DHT22;53568;52.164;4.472;2024-03-06T08:42:25;9.05;78.61
66670;DHT22;53568;52.164;4.472;2024-03-06T08:44:50;9.07;78.67
66670;DHT22;53568;52.164;4.472;2024-03-06T08:47:16;9.16;78.47
66670;DHT22;53568;52.164;4.472;2024-03-06T08:49:42;9.17;78.75
66670;DHT22;53568;52.164;4.472;2024-03-06T08:52:08;9.23;78.68
66670;DHT22;53568;52.164;4.472;2024-03-06T08:54:37;9.36;78.45
66670;DHT22;53568;52.164;4.472;2024-03-06T08:57:05;9.36;78.36
66670;DHT22;53568;52.164;4.472;2024-03-06T08:59:34;9.47;78.57
66670;DHT22;53568;52.164;4.472;2024-03-06T09:02:15;9.57;78.18
66670;DHT22;53568;52.164;4.472;2024-03-06T09:04:42;9.65;78.23
66670;DHT22;53568;52.164;4.472;2024-03-06T09:07:08;9.78;78.01
66670;DHT22;53568;52.164;4.472;2024-03-06T09:09:34;9.88;78.13
66670;DHT22;53568;52.164;4.472;2024-03-06T09:12:00;10.09;77.48
66670;DHT22;53568;52.164;4.472;2024-03-06T09:14:26;10.19;77.23
66670;DHT22;53568;52.164;4.472;2024-03-06T09:16:52;10.31;76.56
66670;DHT22;53568;52.164;4.472;2024-03-06T09:19:17;10.36;75.82
66670;DHT22;53568;52.164;4.472;2024-03-06T09:21:43;10.28;76.22
66670;DHT22;53568;52.164;4.472;2024-03-06T09:24:08;10.34;76.11
66670;DHT22;53568;52.164;4.472;2024-03-06T09:26:34;10.41;76.26
66670;DHT22;53568;52.164;4.472;2024-03-06T09:29:00;10.52;75.63
66670;DHT22;53568;52.164;4.472;2024-03-06T09:31:26;10.41;75.71
66670;DHT22;53568;52.164;4.472;2024-03-06T09:33:53;10.55;75.60
66670;DHT22;53568;52.164;4.472;2024-03-06T09:36:18;10.56;75.50
66670;DHT22;53568;52.164;4.472;2024-03-06T09:38:44;10.65;75.58
66670;DHT22;53568;52.164;4.472;2024-03-06T09:41:10;10.59;75.55
66670;DHT22;53568;52.164;4.472;2024-03-06T09:43:35;10.60;75.73
66670;DHT22;53568;52.164;4.472;2024-03-06T09:46:01;10.73;75.80
66670;DHT22;53568;52.164;4.472;2024-03-06T09:48:29;10.82;75.66
66670;DHT22;53568;52.164;4.472;2024-03-06T09:51:01;11.00;75.66
66670;DHT22;53568;52.164;4.472;2024-03-06T09:53:28;11.16;75.09
66670;DHT22;53568;52.164;4.472;2024-03-06T09:55:56;11.13;75.00
66670;DHT22;53568;52.164;4.472;2024-03-06T09:58:23;11.19;74.75
66670;DHT22;53568;52.164;4.472;2024-03-06T10:00:50;11.37;73.94
66670;DHT22;53568;52.164;4.472;2024-03-06T10:03:16;11.34;73.42
66670;DHT22;53568;52.164;4.472;2024-03-06T10:05:42;11.38;73.60
66670;DHT22;53568;52.164;4.472;2024-03-06T10:08:09;11.48;72.67
66670;DHT22;53568;52.164;4.472;2024-03-06T10:10:35;11.41;72.51
66670;DHT22;53568;52.164;4.472;2024-03-06T10:13:02;11.44;72.21
66670;DHT22;53568;52.164;4.472;2024-03-06T10:15:28;11.58;72.10
66670;DHT22;53568;52.164;4.472;2024-03-06T10:18:14;11.57;71.62
66670;DHT22;53568;52.164;4.472;2024-03-06T10:20:41;11.54;71.92
66670;DHT22;53568;52.164;4.472;2024-03-06T10:23:10;11.60;71.52
66670;DHT22;53568;52.164;4.472;2024-03-06T10:25:36;11.61;71.29
66670;DHT22;53568;52.164;4.472;2024-03-06T10:28:09;11.74;71.39
66670;DHT22;53568;52.164;4.472;2024-03-06T10:30:36;11.73;71.29
66670;DHT22;53568;52.164;4.472;2024-03-06T10:33:05;11.80;70.47
66670;DHT22;53568;52.164;4.472;2024-03-06T10:35:36;11.80;70.69
66670;DHT22;53568;52.164;4.472;2024-03-06T10:38:06;11.87;69.87
66670;DHT22;53568;52.164;4.472;2024-03-06T10:40:38;11.97;70.00
66670;DHT22;53568;52.164;4.472;2024-03-06T10:43:05;12.02;69.96
66670;DHT22;53568;52.164;4.472;2024-03-06T10:45:51;12.15;69.50
66670;DHT22;53568;52.164;4.472;2024-03-06T10:48:21;12.14;69.03
66670;DHT22;53568;52.164;4.472;2024-03-06T10:50:49;12.04;68.96
66670;DHT22;53568;52.164;4.472;2024-03-06T10:53:18;11.99;69.67
66670;DHT22;53568;52.164;4.472;2024-03-06T10:55:44;12.04;70.04
66670;DHT22;53568;52.164;4.472;2024-03-06T10:58:10;12.06;70.14
66670;DHT22;53568;52.164;4.472;2024-03-06T11:00:41;12.17;70.11
66670;DHT22;53568;52.164;4.472;2024-03-06T11:03:09;12.22;69.95
66670;DHT22;53568;52.164;4.472;2024-03-06T11:05:39;12.36;69.40
66670;DHT22;53568;52.164;4.472;2024-03-06T11:08:15;12.32;70.10
66670;DHT22;53568;52.164;4.472;2024-03-06T11:10:42;12.46;70.26
66670;DHT22;53568;52.164;4.472;2024-03-06T11:13:21;12.49;69.77
66670;DHT22;53568;52.164;4.472;2024-03-06T11:15:53;12.56;69.23
66670;DHT22;53568;52.164;4.472;2024-03-06T11:24:17;12.80;68.89
66670;DHT22;53568;52.164;4.472;2024-03-06T11:27:03;12.83;67.84
66670;DHT22;53568;52.164;4.472;2024-03-06T11:30:07;12.92;67.52
66670;DHT22;53568;52.164;4.472;2024-03-06T11:32:58;13.04;66.79
66670;DHT22;53568;52.164;4.472;2024-03-06T11:35:29;12.97;66.13
66670;DHT22;53568;52.164;4.472;2024-03-06T11:37:55;12.99;64.82
66670;DHT22;53568;52.164;4.472;2024-03-06T11:40:23;12.83;65.08
66670;DHT22;53568;52.164;4.472;2024-03-06T11:42:52;12.89;64.51
66670;DHT22;53568;52.164;4.472;2024-03-06T11:45:19;12.96;64.04
66670;DHT22;53568;52.164;4.472;2024-03-06T11:48:01;12.89;63.30
66670;DHT22;53568;52.164;4.472;2024-03-06T11:50:28;13.00;63.05
66670;DHT22;53568;52.164;4.472;2024-03-06T11:52:54;13.20;62.80
66670;DHT22;53568;52.164;4.472;2024-03-06T11:55:22;13.33;62.22
66670;DHT22;53568;52.164;4.472;2024-03-06T11:57:51;13.47;62.12
66670;DHT22;53568;52.164;4.472;2024-03-06T12:00:21;13.57;59.69
66670;DHT22;53568;52.164;4.472;2024-03-06T12:02:47;13.60;59.93
66670;DHT22;53568;52.164;4.472;2024-03-06T12:05:13;13.68;60.51
66670;DHT22;53568;52.164;4.472;2024-03-06T12:07:49;13.81;60.29
66670;DHT22;53568;52.164;4.472;2024-03-06T12:10:18;13.87;59.89
66670;DHT22;53568;52.164;4.472;2024-03-06T12:12:44;13.94;59.96
66670;DHT22;53568;52.164;4.472;2024-03-06T12:15:11;13.91;59.52
66670;DHT22;53568;52.164;4.472;2024-03-06T12:17:48;14.15;58.95
66670;DHT22;53568;52.164;4.472;2024-03-06T12:20:17;13.97;59.76
66670;DHT22;53568;52.164;4.472;2024-03-06T12:22:45;14.02;59.71
66670;DHT22;53568;52.164;4.472;2024-03-06T12:25:10;14.00;59.12
66670;DHT22;53568;52.164;4.472;2024-03-06T12:27:42;14.07;59.43
66670;DHT22;53568;52.164;4.472;2024-03-06T12:30:09;14.25;58.32
66670;DHT22;53568;52.164;4.472;2024-03-06T12:32:38;14.33;56.49
66670;DHT22;53568;52.164;4.472;2024-03-06T12:35:04;14.19;55.62
66670;DHT22;53568;52.164;4.472;2024-03-06T12:37:31;14.12;55.52
66670;DHT22;53568;52.164;4.472;2024-03-06T12:39:57;14.26;56.26
66670;DHT22;53568;52.164;4.472;2024-03-06T12:42:23;14.33;56.44
66670;DHT22;53568;52.164;4.472;2024-03-06T12:44:50;14.35;55.85
66670;DHT22;53568;52.164;4.472;2024-03-06T12:47:15;14.42;54.92
66670;DHT22;53568;52.164;4.472;2024-03-06T12:49:41;14.43;55.21
66670;DHT22;53568;52.164;4.472;2024-03-06T12:52:06;14.33;55.39
66670;DHT22;53568;52.164;4.472;2024-03-06T12:54:32;14.49;55.32
66670;DHT22;53568;52.164;4.472;2024-03-06T12:56:58;14.45;54.30
66670;DHT22;53568;52.164;4.472;2024-03-06T12:59:23;14.35;54.65
66670;DHT22;53568;52.164;4.472;2024-03-06T13:01:49;14.15;56.14
66670;DHT22;53568;52.164;4.472;2024-03-06T13:04:14;14.11;57.10
66670;DHT22;53568;52.164;4.472;2024-03-06T13:06:40;14.12;56.99
66670;DHT22;53568;52.164;4.472;2024-03-06T13:09:06;14.18;55.71
66670;DHT22;53568;52.164;4.472;2024-03-06T13:11:35;14.24;55.69
66670;DHT22;53568;52.164;4.472;2024-03-06T13:14:00;14.22;55.47
66670;DHT22;53568;52.164;4.472;2024-03-06T13:16:26;14.14;55.60
66670;DHT22;53568;52.164;4.472;2024-03-06T13:18:52;13.91;55.13
66670;DHT22;53568;52.164;4.472;2024-03-06T13:21:22;13.84;55.96
66670;DHT22;53568;52.164;4.472;2024-03-06T13:23:48;13.95;55.43
66670;DHT22;53568;52.164;4.472;2024-03-06T13:26:14;14.09;55.25
66670;DHT22;53568;52.164;4.472;2024-03-06T13:28:40;14.26;54.81
66670;DHT22;53568;52.164;4.472;2024-03-06T13:31:05;14.25;54.97
66670;DHT22;53568;52.164;4.472;2024-03-06T13:33:33;14.28;54.17
66670;DHT22;53568;52.164;4.472;2024-03-06T13:35:59;14.24;53.84
66670;DHT22;53568;52.164;4.472;2024-03-06T13:38:24;14.17;54.26
66670;DHT22;53568;52.164;4.472;2024-03-06T13:40:50;14.18;54.03
66670;DHT22;53568;52.164;4.472;2024-03-06T13:43:15;14.25;53.14
66670;DHT22;53568;52.164;4.472;2024-03-06T13:45:51;14.15;53.81
66670;DHT22;53568;52.164;4.472;2024-03-06T13:48:17;14.36;53.59
66670;DHT22;53568;52.164;4.472;2024-03-06T13:50:43;14.39;53.75
66670;DHT22;53568;52.164;4.472;2024-03-06T13:53:10;14.59;53.97
66670;DHT22;53568;52.164;4.472;2024-03-06T13:55:36;14.56;54.17
66670;DHT22;53568;52.164;4.472;2024-03-06T13:58:01;14.42;54.29
66670;DHT22;53568;52.164;4.472;2024-03-06T14:00:28;14.33;54.49
66670;DHT22;53568;52.164;4.472;2024-03-06T14:02:53;14.26;54.80
66670;DHT22;53568;52.164;4.472;2024-03-06T14:05:19;14.22;55.00
66670;DHT22;53568;52.164;4.472;2024-03-06T14:07:50;14.19;56.09
66670;DHT22;53568;52.164;4.472;2024-03-06T14:10:16;14.25;59.89
66670;DHT22;53568;52.164;4.472;2024-03-06T14:12:44;14.29;60.76
66670;DHT22;53568;52.164;4.472;2024-03-06T14:15:10;14.46;60.20
66670;DHT22;53568;52.164;4.472;2024-03-06T14:17:41;14.59;61.82
66670;DHT22;53568;52.164;4.472;2024-03-06T14:20:07;14.59;62.76
66670;DHT22;53568;52.164;4.472;2024-03-06T14:22:33;14.42;63.49
66670;DHT22;53568;52.164;4.472;2024-03-06T14:24:59;14.17;64.79
66670;DHT22;53568;52.164;4.472;2024-03-06T14:27:25;14.01;65.10
66670;DHT22;53568;52.164;4.472;2024-03-06T14:29:50;14.00;64.30
66670;DHT22;53568;52.164;4.472;2024-03-06T14:32:18;14.02;64.20
66670;DHT22;53568;52.164;4.472;2024-03-06T14:34:44;14.11;64.50
66670;DHT22;53568;52.164;4.472;2024-03-06T14:37:10;14.17;64.03
66670;DHT22;53568;52.164;4.472;2024-03-06T14:39:36;14.33;63.51
66670;DHT22;53568;52.164;4.472;2024-03-06T14:42:02;14.32;63.52
66670;DHT22;53568;52.164;4.472;2024-03-06T14:44:29;14.39;63.47
66670;DHT22;53568;52.164;4.472;2024-03-06T14:46:56;14.32;63.57
66670;DHT22;53568;52.164;4.472;2024-03-06T14:49:22;14.26;63.49
66670;DHT22;53568;52.164;4.472;2024-03-06T14:51:47;14.14;63.99
66670;DHT22;53568;52.164;4.472;2024-03-06T14:54:13;14.15;64.12
66670;DHT22;53568;52.164;4.472;2024-03-06T14:56:40;14.17;63.94
66670;DHT22;53568;52.164;4.472;2024-03-06T14:59:06;14.18;63.92
66670;DHT22;53568;52.164;4.472;2024-03-06T15:01:32;14.21;64.02
66670;DHT22;53568;52.164;4.472;2024-03-06T15:03:58;14.31;63.98
66670;DHT22;53568;52.164;4.472;2024-03-06T15:06:24;14.21;63.90
66670;DHT22;53568;52.164;4.472;2024-03-06T15:08:50;14.22;63.93
66670;DHT22;53568;52.164;4.472;2024-03-06T15:11:15;14.14;63.75
66670;DHT22;53568;52.164;4.472;2024-03-06T15:13:41;14.09;63.87
66670;DHT22;53568;52.164;4.472;2024-03-06T15:16:07;14.12;63.08
66670;DHT22;53568;52.164;4.472;2024-03-06T15:18:35;14.05;64.07
66670;DHT22;53568;52.164;4.472;2024-03-06T15:21:01;14.14;63.04
66670;DHT22;53568;52.164;4.472;2024-03-06T15:23:26;14.08;63.24
66670;DHT22;53568;52.164;4.472;2024-03-06T15:25:52;14.09;63.58
66670;DHT22;53568;52.164;4.472;2024-03-06T15:28:19;14.12;63.87
66670;DHT22;53568;52.164;4.472;2024-03-06T15:30:45;14.21;63.36
66670;DHT22;53568;52.164;4.472;2024-03-06T15:33:10;14.21;63.05
66670;DHT22;53568;52.164;4.472;2024-03-06T15:35:36;14.15;63.79
66670;DHT22;53568;52.164;4.472;2024-03-06T15:38:02;14.14;63.92
66670;DHT22;53568;52.164;4.472;2024-03-06T15:40:29;14.05;64.19
66670;DHT22;53568;52.164;4.472;2024-03-06T15:42:55;13.97;64.75